Time;durP1;ratioP1;P1;durP2;ratioP2;P2;SDS_P1;SDS_P2;PMS_P1;PMS_P2;Temp;Humidity;BMP_temperature;BMP_pressure;BME280_temperature;BME280_humidity;BME280_pressure;Samples;Min_cycle;Max_cycle;Signal;HPM_P1;HPM_P2
2021/11/13 00:02:50;;;;;;;3.40;2.65;;;17.60;70.20;;;;;;10373263;28;20061;-59
2021/11/13 00:07:51;;;;;;;4.40;2.90;;;17.70;69.80;;;;;;10373623;28;20026;-59
2021/11/13 00:12:55;;;;;;;4.03;2.70;;;17.70;69.80;;;;;;10348909;28;20034;-59
2021/11/13 00:17:56;;;;;;;3.83;3.28;;;17.70;69.80;;;;;;10332361;28;20622;-59
2021/11/13 00:22:58;;;;;;;4.70;2.83;;;17.60;70.00;;;;;;10365147;28;20038;-59
2021/11/13 00:28:00;;;;;;;4.78;3.00;;;17.60;70.10;;;;;;10371508;28;20504;-59
2021/11/13 00:33:00;;;;;;;3.80;2.97;;;17.60;69.90;;;;;;10351109;28;20040;-59
2021/11/13 00:38:01;;;;;;;4.75;3.13;;;17.60;69.80;;;;;;10361396;28;20374;-59
2021/11/13 00:43:02;;;;;;;3.47;2.85;;;17.60;69.90;;;;;;10372303;28;20033;-59
2021/11/13 00:48:04;;;;;;;3.55;2.78;;;17.50;70.00;;;;;;10371053;28;20506;-59
2021/11/13 00:53:05;;;;;;;4.30;2.70;;;17.60;70.00;;;;;;10365345;28;20031;-59
2021/11/13 00:58:05;;;;;;;4.30;2.47;;;17.60;69.80;;;;;;10331636;28;20437;-59
2021/11/13 01:03:08;;;;;;;3.80;2.58;;;17.60;69.90;;;;;;10334316;28;20181;-59
2021/11/13 01:08:08;;;;;;;4.50;3.42;;;17.60;69.90;;;;;;10331525;28;20037;-59
2021/11/13 01:13:09;;;;;;;4.50;2.58;;;17.60;70.00;;;;;;10356786;28;20382;-59
2021/11/13 01:18:10;;;;;;;5.07;2.80;;;17.50;70.00;;;;;;10370496;28;20037;-59
2021/11/13 01:23:11;;;;;;;2.80;2.13;;;17.70;69.80;;;;;;10371641;28;20037;-59
2021/11/13 01:28:12;;;;;;;4.25;2.83;;;17.70;69.60;;;;;;10371364;28;20042;-59
2021/11/13 01:33:13;;;;;;;3.35;2.58;;;17.70;69.70;;;;;;10360541;28;20089;-60
2021/11/13 01:38:15;;;;;;;3.53;2.92;;;17.60;69.70;;;;;;10367382;28;20437;-59
2021/11/13 01:43:15;;;;;;;3.88;2.78;;;17.50;69.80;;;;;;10354457;28;20038;-59
2021/11/13 01:48:16;;;;;;;2.90;2.10;;;17.60;69.80;;;;;;10338014;28;20050;-59
2021/11/13 01:53:17;;;;;;;3.25;2.20;;;17.60;69.70;;;;;;10361981;28;20483;-59
2021/11/13 01:58:18;;;;;;;3.65;2.30;;;17.70;69.50;;;;;;10378379;28;20037;-59
2021/11/13 02:03:21;;;;;;;2.85;2.30;;;17.70;69.30;;;;;;10377979;28;20045;-59
2021/11/13 02:08:22;;;;;;;2.75;2.40;;;17.70;69.40;;;;;;10358757;28;20025;-59
2021/11/13 02:13:23;;;;;;;4.32;2.67;;;17.60;70.10;;;;;;10368072;28;20029;-59
2021/11/13 02:18:23;;;;;;;2.92;2.22;;;17.70;69.50;;;;;;10376103;28;20026;-59
2021/11/13 02:23:26;;;;;;;3.40;2.30;;;17.70;69.40;;;;;;10377163;28;20036;-59
2021/11/13 02:28:28;;;;;;;3.60;2.53;;;17.60;69.40;;;;;;10377182;28;20108;-59
2021/11/13 02:33:30;;;;;;;4.22;2.50;;;17.60;69.50;;;;;;10376267;28;20022;-59
2021/11/13 02:38:36;;;;;;;3.63;2.58;;;17.70;69.40;;;;;;10376565;28;20108;-59
2021/11/13 02:43:39;;;;;;;3.35;2.60;;;17.70;69.40;;;;;;10347324;28;20034;-59
2021/11/13 02:48:42;;;;;;;3.67;2.63;;;17.60;69.40;;;;;;10339174;28;20390;-59
2021/11/13 02:53:46;;;;;;;3.30;2.42;;;17.70;69.50;;;;;;10375831;28;20034;-59
2021/11/13 02:58:47;;;;;;;3.22;2.38;;;17.70;69.30;;;;;;10375756;28;20029;-59
2021/11/13 03:03:54;;;;;;;3.97;2.10;;;17.70;69.30;;;;;;10335677;28;20493;-59
2021/11/13 03:08:55;;;;;;;3.45;2.25;;;17.60;69.40;;;;;;10342251;28;20439;-59
2021/11/13 03:13:56;;;;;;;2.92;2.17;;;17.70;69.40;;;;;;10353569;28;20046;-59
2021/11/13 03:18:56;;;;;;;3.10;1.98;;;17.70;69.20;;;;;;10338674;28;20030;-59
2021/11/13 03:23:59;;;;;;;3.10;2.17;;;17.70;69.30;;;;;;10343890;28;20036;-59
2021/11/13 03:29:14;;;;;;;3.00;2.17;;;17.60;69.30;;;;;;10332875;28;20041;-59
2021/11/13 03:34:16;;;;;;;2.60;2.00;;;17.70;69.20;;;;;;10350971;28;20410;-59
2021/11/13 03:39:16;;;;;;;3.08;2.10;;;17.70;69.30;;;;;;10374295;28;20095;-59
2021/11/13 03:44:17;;;;;;;3.08;2.50;;;17.70;69.30;;;;;;10338616;28;20081;-59
2021/11/13 03:49:18;;;;;;;2.80;2.08;;;17.70;69.20;;;;;;10345390;28;20050;-59
2021/11/13 03:54:19;;;;;;;3.10;2.35;;;17.70;69.10;;;;;;10373483;28;20025;-59
2021/11/13 03:59:23;;;;;;;2.88;1.88;;;17.70;69.20;;;;;;10368172;28;20072;-59
2021/11/13 04:04:23;;;;;;;2.60;2.03;;;17.60;69.20;;;;;;10366977;28;20728;-59
2021/11/13 04:09:24;;;;;;;2.95;2.25;;;17.70;69.20;;;;;;10366167;28;20113;-59
2021/11/13 04:14:25;;;;;;;3.03;2.17;;;17.70;69.10;;;;;;10369623;28;20125;-59
2021/11/13 04:19:26;;;;;;;3.60;2.20;;;17.60;69.20;;;;;;10372799;28;20453;-59
2021/11/13 04:24:27;;;;;;;3.50;2.38;;;17.70;69.20;;;;;;10348709;28;20034;-59
2021/11/13 04:29:27;;;;;;;3.30;2.03;;;17.70;69.10;;;;;;10349731;28;20057;-59
2021/11/13 04:34:39;;;;;;;3.28;2.28;;;17.70;69.10;;;;;;10372347;28;20034;-59
2021/11/13 04:39:40;;;;;;;2.63;1.85;;;17.70;69.20;;;;;;10360025;28;20112;-59
2021/11/13 04:44:41;;;;;;;2.05;1.73;;;17.70;69.10;;;;;;10371046;28;20029;-59
2021/11/13 04:49:42;;;;;;;3.13;1.83;;;17.70;69.00;;;;;;10372214;28;20045;-59
2021/11/13 04:54:43;;;;;;;2.92;1.92;;;17.70;69.10;;;;;;10371910;28;20102;-59
2021/11/13 04:59:44;;;;;;;2.63;2.03;;;17.70;69.20;;;;;;10339816;28;20038;-59
2021/11/13 05:04:44;;;;;;;2.63;1.90;;;17.70;69.10;;;;;;10368194;28;20160;-58
2021/11/13 05:09:45;;;;;;;2.72;2.05;;;17.70;69.10;;;;;;10375244;28;20041;-59
2021/11/13 05:14:46;;;;;;;2.88;1.85;;;17.70;69.20;;;;;;10338677;28;20113;-58
2021/11/13 05:19:46;;;;;;;2.97;1.85;;;17.70;69.10;;;;;;10377723;28;20088;-59
2021/11/13 05:24:47;;;;;;;4.93;1.98;;;17.70;69.00;;;;;;10377727;28;20040;-59
2021/11/13 05:29:48;;;;;;;2.47;1.92;;;17.70;69.10;;;;;;10377174;28;20494;-58
2021/11/13 05:34:49;;;;;;;2.78;1.67;;;17.70;69.20;;;;;;10376102;28;20117;-58
2021/11/13 05:39:50;;;;;;;2.13;1.60;;;17.70;69.00;;;;;;10376413;28;20478;-60
2021/11/13 05:44:51;;;;;;;1.88;1.42;;;17.90;69.20;;;;;;10376257;28;20091;-58
2021/11/13 05:49:53;;;;;;;2.30;1.90;;;18.00;68.10;;;;;;10364645;28;20034;-59
2021/11/13 05:54:53;;;;;;;2.38;1.50;;;18.20;67.70;;;;;;10367982;28;20534;-59
2021/11/13 05:59:55;;;;;;;2.60;1.63;;;18.20;67.50;;;;;;10371203;28;20033;-59
2021/11/13 06:04:55;;;;;;;3.17;2.20;;;18.30;67.40;;;;;;10376111;28;20100;-59
2021/11/13 06:09:56;;;;;;;2.67;1.88;;;18.30;67.80;;;;;;10368305;28;20531;-58
2021/11/13 06:14:57;;;;;;;2.25;1.92;;;18.50;67.40;;;;;;10348784;28;20038;-59
2021/11/13 06:19:58;;;;;;;4.22;2.15;;;18.40;68.60;;;;;;10340765;28;20399;-60
2021/11/13 06:24:59;;;;;;;3.30;2.38;;;18.40;68.50;;;;;;10335274;28;20470;-61
2021/11/13 06:29:59;;;;;;;3.55;2.42;;;18.50;69.00;;;;;;10345752;28;20042;-60
2021/11/13 06:35:01;;;;;;;5.13;2.22;;;18.50;68.80;;;;;;10351817;28;20026;-59
2021/11/13 06:40:04;;;;;;;5.47;2.55;;;18.50;69.30;;;;;;10374869;28;20030;-59
2021/11/13 06:45:08;;;;;;;6.63;2.75;;;18.60;69.60;;;;;;10370289;28;20080;-60
2021/11/13 06:50:10;;;;;;;7.57;2.92;;;18.60;69.20;;;;;;10353053;28;20033;-61
2021/11/13 06:55:12;;;;;;;4.38;2.30;;;18.60;68.90;;;;;;10355743;28;20046;-61
2021/11/13 07:00:17;;;;;;;10.70;2.83;;;18.60;69.00;;;;;;10358730;28;20121;-62
2021/11/13 07:05:18;;;;;;;7.50;2.38;;;18.60;69.20;;;;;;10355773;28;20030;-60
2021/11/13 07:10:21;;;;;;;8.50;2.35;;;18.60;68.70;;;;;;10359417;28;20034;-60
2021/11/13 07:15:24;;;;;;;8.20;2.40;;;18.70;68.20;;;;;;10331724;28;20045;-59
2021/11/13 07:20:25;;;;;;;3.08;1.67;;;18.80;67.80;;;;;;10339231;28;20034;-60
2021/11/13 07:25:27;;;;;;;7.22;2.30;;;18.70;67.70;;;;;;10355462;28;20035;-60
2021/11/13 07:30:37;;;;;;;4.88;2.08;;;18.60;68.00;;;;;;10346728;28;20117;-60
2021/11/13 07:35:42;;;;;;;7.22;2.00;;;18.60;68.00;;;;;;10356744;28;20069;-62
2021/11/13 07:40:43;;;;;;;9.07;2.20;;;18.60;68.10;;;;;;10338822;28;20041;-62
2021/11/13 07:45:44;;;;;;;5.22;2.50;;;18.60;67.90;;;;;;10333135;28;20046;-61
2021/11/13 07:50:45;;;;;;;8.57;2.50;;;18.60;67.00;;;;;;10357696;28;20375;-62
2021/11/13 07:55:46;;;;;;;8.98;2.78;;;18.60;67.00;;;;;;10373483;28;20439;-61
2021/11/13 08:00:49;;;;;;;8.65;2.42;;;18.60;67.10;;;;;;10370775;28;20034;-61
2021/11/13 08:05:50;;;;;;;5.72;2.08;;;18.50;67.00;;;;;;10369545;28;20483;-60
2021/11/13 08:10:51;;;;;;;4.43;2.38;;;18.50;67.00;;;;;;10368057;28;20032;-61
2021/11/13 08:15:52;;;;;;;3.72;2.22;;;18.50;67.10;;;;;;10370614;28;20026;-61
2021/11/13 08:20:53;;;;;;;4.57;2.45;;;18.50;67.00;;;;;;10371768;28;20026;-61
2021/11/13 08:25:54;;;;;;;6.43;2.00;;;18.50;66.90;;;;;;10372814;28;20048;-61
2021/11/13 08:30:55;;;;;;;5.07;2.25;;;18.50;67.00;;;;;;10372869;28;20061;-61
2021/11/13 08:35:57;;;;;;;4.47;1.65;;;18.50;66.80;;;;;;10361264;28;20125;-62
2021/11/13 08:40:59;;;;;;;4.03;1.80;;;18.60;66.90;;;;;;10339449;28;20117;-58
2021/11/13 08:46:00;;;;;;;2.75;1.75;;;18.50;66.80;;;;;;10343313;28;20049;-57
2021/11/13 08:51:02;;;;;;;3.78;2.15;;;18.60;66.70;;;;;;10370640;28;20028;-58
2021/11/13 08:56:03;;;;;;;5.18;2.10;;;18.50;67.00;;;;;;10368524;28;20030;-58
2021/11/13 09:01:06;;;;;;;4.32;2.05;;;18.60;66.90;;;;;;10371366;28;20030;-59
2021/11/13 09:06:17;;;;;;;3.25;1.90;;;18.70;66.60;;;;;;10363321;28;20035;-58
2021/11/13 09:11:23;;;;;;;5.75;2.40;;;18.60;66.70;;;;;;10344992;28;20030;-58
2021/11/13 09:16:24;;;;;;;3.47;2.20;;;18.70;67.00;;;;;;10360392;28;20108;-58
2021/11/13 09:21:25;;;;;;;4.47;2.03;;;18.70;66.90;;;;;;10370860;28;20081;-58
2021/11/13 09:26:26;;;;;;;3.53;2.33;;;18.70;66.80;;;;;;10369223;28;20045;-59
2021/11/13 09:31:27;;;;;;;4.97;2.05;;;18.70;67.00;;;;;;10370413;28;20057;-60
2021/11/13 09:36:28;;;;;;;4.35;2.47;;;18.60;67.20;;;;;;10353364;28;20014;-59
2021/11/13 09:41:29;;;;;;;8.27;3.08;;;18.60;67.40;;;;;;10339622;28;20030;-59
2021/11/13 09:46:30;;;;;;;7.78;2.30;;;18.60;67.50;;;;;;10338155;28;20058;-58
2021/11/13 09:51:32;;;;;;;6.28;2.40;;;18.70;67.10;;;;;;10328924;28;20099;-57
2021/11/13 09:56:32;;;;;;;6.85;2.75;;;18.70;67.10;;;;;;10332150;28;20026;-57
2021/11/13 10:01:33;;;;;;;4.18;2.13;;;18.60;67.30;;;;;;10332188;28;20089;-58
2021/11/13 10:06:34;;;;;;;4.00;1.88;;;18.50;67.60;;;;;;10331768;28;20026;-58
2021/11/13 10:11:40;;;;;;;5.35;2.20;;;18.50;67.60;;;;;;10346823;28;20260;-58
2021/11/13 10:16:49;;;;;;;3.88;2.20;;;18.50;67.40;;;;;;10339836;28;20495;-58
2021/11/13 10:21:56;;;;;;;5.13;2.15;;;18.50;67.60;;;;;;10335255;28;20447;-56
2021/11/13 10:27:07;;;;;;;4.47;2.42;;;18.40;67.80;;;;;;10348147;28;20026;-58
2021/11/13 10:32:17;;;;;;;3.63;2.20;;;18.40;67.80;;;;;;10335843;28;20538;-58
2021/11/13 10:37:20;;;;;;;;;;;18.60;67.50;;;;;;10371428;28;20022;-57
2021/11/13 10:42:22;;;;;;;5.05;2.03;;;18.60;67.50;;;;;;10376091;28;19910;-57
2021/11/13 10:47:36;;;;;;;4.07;1.90;;;18.60;67.50;;;;;;10376120;28;20045;-58
2021/11/13 10:52:37;;;;;;;4.25;1.90;;;18.60;67.30;;;;;;10374651;28;20496;-59
2021/11/13 10:57:39;;;;;;;4.63;2.20;;;18.60;67.40;;;;;;10358075;28;20052;-58
2021/11/13 11:02:40;;;;;;;5.45;2.50;;;18.50;67.60;;;;;;10375171;28;20034;-58
2021/11/13 11:07:41;;;;;;;7.53;2.20;;;18.50;67.80;;;;;;10373256;28;20041;-58
2021/11/13 11:12:45;;;;;;;3.80;1.75;;;18.40;67.90;;;;;;10350556;28;20566;-58
2021/11/13 11:17:46;;;;;;;2.35;1.65;;;18.50;68.00;;;;;;10332936;28;20023;-58
2021/11/13 11:22:47;;;;;;;3.75;1.80;;;18.50;67.80;;;;;;10363138;28;20026;-58
2021/11/13 11:27:49;;;;;;;4.65;2.03;;;18.40;67.90;;;;;;10374191;28;20393;-58
2021/11/13 11:32:56;;;;;;;4.38;2.22;;;18.40;68.10;;;;;;10374120;28;20030;-59
2021/11/13 11:38:09;;;;;;;3.55;1.73;;;18.30;68.40;;;;;;10373943;28;20044;-58
2021/11/13 11:43:13;;;;;;;3.83;1.70;;;18.30;68.60;;;;;;10373713;28;20030;-58
2021/11/13 11:48:17;;;;;;;2.05;1.60;;;18.40;68.20;;;;;;10371945;28;20042;-58
2021/11/13 11:53:18;;;;;;;2.45;1.60;;;18.40;68.10;;;;;;10373297;28;20034;-58
2021/11/13 11:58:23;;;;;;;2.42;1.77;;;18.50;67.90;;;;;;10373192;28;20030;-58
2021/11/13 12:03:35;;;;;;;2.53;1.77;;;18.50;67.70;;;;;;10371504;28;20021;-58
2021/11/13 12:08:38;;;;;;;2.78;1.90;;;18.40;67.80;;;;;;10372815;28;20505;-58
2021/11/13 12:13:39;;;;;;;3.30;1.45;;;18.40;68.10;;;;;;10340187;28;20030;-58
2021/11/13 12:18:46;;;;;;;3.55;1.65;;;18.30;68.30;;;;;;10330877;28;20450;-59
2021/11/13 12:23:50;;;;;;;2.92;1.60;;;18.30;68.50;;;;;;10330550;28;20092;-58
2021/11/13 12:28:56;;;;;;;1.92;1.50;;;18.30;68.40;;;;;;10330289;28;20558;-58
2021/11/13 12:34:15;;;;;;;2.63;1.65;;;18.40;68.10;;;;;;10339316;28;20076;-58
2021/11/13 12:39:19;;;;;;;1.80;1.47;;;18.40;68.10;;;;;;10371922;28;20466;-58
2021/11/13 12:44:28;;;;;;;3.05;1.80;;;18.40;68.30;;;;;;10371926;28;20112;-58
2021/11/13 12:49:38;;;;;;;3.70;1.85;;;18.40;68.00;;;;;;10371481;28;20124;-59
2021/11/13 12:54:50;;;;;;;2.65;1.92;;;18.40;67.90;;;;;;10371599;28;20065;-57
2021/11/13 13:00:18;;;;;;;1.95;1.38;;;18.40;68.10;;;;;;10371215;28;20450;-58
2021/11/13 13:05:20;;;;;;;3.05;1.85;;;18.30;68.30;;;;;;10371937;28;20112;-58
2021/11/13 13:10:24;;;;;;;2.33;1.58;;;18.20;68.50;;;;;;10365378;28;20025;-57
2021/11/13 13:15:25;;;;;;;2.92;2.00;;;18.20;68.70;;;;;;10329315;28;20026;-57
2021/11/13 13:20:33;;;;;;;2.25;1.52;;;18.10;68.90;;;;;;10313358;28;20487;-58
2021/11/13 13:25:38;;;;;;;2.60;1.27;;;18.10;69.10;;;;;;10330376;28;20097;-57
2021/11/13 13:30:39;;;;;;;2.40;1.30;;;18.20;68.70;;;;;;10335547;28;20062;-56
2021/11/13 13:35:41;;;;;;;2.75;1.65;;;18.20;68.40;;;;;;10358677;28;20026;-58
2021/11/13 13:41:05;;;;;;;2.38;1.48;;;18.30;68.20;;;;;;10377610;28;20044;-58
2021/11/13 13:46:13;;;;;;;1.63;1.25;;;18.40;68.00;;;;;;10360892;28;20509;-57
2021/11/13 13:51:30;;;;;;;1.83;1.45;;;18.30;68.10;;;;;;10377984;28;20034;-58
2021/11/13 13:56:35;;;;;;;1.63;0.98;;;18.30;68.30;;;;;;10376655;28;20060;-58
2021/11/13 14:01:39;;;;;;;1.92;1.52;;;18.30;68.40;;;;;;10376745;28;20044;-58
2021/11/13 14:06:40;;;;;;;1.92;1.27;;;18.40;68.00;;;;;;10376217;28;20037;-58
2021/11/13 14:11:41;;;;;;;1.05;0.90;;;18.40;68.00;;;;;;10360300;28;20070;-58
2021/11/13 14:16:41;;;;;;;1.48;1.17;;;18.30;68.10;;;;;;10332848;28;20061;-57
2021/11/13 14:21:43;;;;;;;2.55;1.55;;;18.30;68.30;;;;;;10333721;28;20428;-58
2021/11/13 14:26:45;;;;;;;2.60;1.50;;;18.30;68.30;;;;;;10332358;28;20030;-58
2021/11/13 14:31:49;;;;;;;1.77;1.48;;;18.30;68.40;;;;;;10333267;28;20035;-58
2021/11/13 14:37:01;;;;;;;1.48;1.02;;;18.30;68.40;;;;;;10336025;28;20022;-59
2021/11/13 14:42:16;;;;;;;1.98;1.30;;;18.30;68.30;;;;;;10331916;28;20363;-58
2021/11/13 14:47:25;;;;;;;1.83;1.23;;;18.30;68.30;;;;;;10330998;28;20066;-58
2021/11/13 14:52:38;;;;;;;1.50;1.30;;;18.20;68.50;;;;;;10332742;28;20450;-59
2021/11/13 14:57:56;;;;;;;2.35;1.38;;;18.20;68.50;;;;;;10330968;28;20052;-58
2021/11/13 15:03:20;;;;;;;1.40;1.10;;;18.30;68.30;;;;;;10332386;28;20046;-58
2021/11/13 15:08:36;;;;;;;1.35;1.13;;;18.30;68.20;;;;;;10331152;28;20065;-58
2021/11/13 15:13:42;;;;;;;1.88;1.20;;;18.40;68.00;;;;;;10348522;28;20026;-59
2021/11/13 15:18:47;;;;;;;1.75;1.10;;;18.50;67.60;;;;;;10314347;28;20030;-58
2021/11/13 15:23:48;;;;;;;2.13;1.38;;;18.50;67.60;;;;;;10327114;28;20085;-58
2021/11/13 15:28:50;;;;;;;1.52;1.02;;;18.40;67.80;;;;;;10330716;28;20041;-57
2021/11/13 15:33:51;;;;;;;1.45;1.00;;;18.40;68.00;;;;;;10340996;28;20026;-58
2021/11/13 15:38:51;;;;;;;2.33;1.42;;;18.40;67.70;;;;;;10373950;28;20444;-57
2021/11/13 15:44:06;;;;;;;2.03;1.15;;;18.40;67.70;;;;;;10372756;28;20045;-58
2021/11/13 15:49:07;;;;;;;1.30;0.93;;;18.40;67.90;;;;;;10372407;28;20342;-58
2021/11/13 15:54:11;;;;;;;1.00;0.90;;;18.40;67.90;;;;;;10370353;28;20032;-58
2021/11/13 15:59:16;;;;;;;2.17;1.45;;;18.40;67.60;;;;;;10370506;28;20727;-59
2021/11/13 16:04:18;;;;;;;1.33;0.90;;;18.40;67.70;;;;;;10370388;28;20490;-59
2021/11/13 16:09:23;;;;;;;1.95;1.27;;;18.40;67.80;;;;;;10369037;28;20034;-58
2021/11/13 16:14:23;;;;;;;1.20;1.00;;;18.50;67.60;;;;;;10331825;28;20030;-57
2021/11/13 16:19:24;;;;;;;1.40;1.08;;;18.50;67.60;;;;;;10329378;28;20033;-59
2021/11/13 16:24:25;;;;;;;1.50;0.90;;;18.40;67.70;;;;;;10329268;28;20585;-57
2021/11/13 16:29:25;;;;;;;1.00;0.85;;;18.40;67.70;;;;;;10328993;28;20545;-58
2021/11/13 16:34:26;;;;;;;1.38;1.00;;;18.40;67.40;;;;;;10339536;28;20466;-58
2021/11/13 16:39:28;;;;;;;1.67;0.90;;;18.40;67.40;;;;;;10343124;28;20034;-58
2021/11/13 16:44:30;;;;;;;1.35;0.88;;;18.40;67.70;;;;;;10324578;28;20038;-58
2021/11/13 16:49:30;;;;;;;1.75;0.90;;;18.50;67.50;;;;;;10327298;28;20133;-59
2021/11/13 16:54:31;;;;;;;1.27;1.08;;;18.50;67.30;;;;;;10348096;28;20382;-58
2021/11/13 16:59:32;;;;;;;1.17;0.70;;;18.40;67.50;;;;;;10370740;28;20029;-57
2021/11/13 17:04:33;;;;;;;1.40;1.00;;;18.40;67.60;;;;;;10373040;28;20117;-58
2021/11/13 17:09:33;;;;;;;1.25;0.88;;;18.50;67.50;;;;;;10377270;28;20423;-58
2021/11/13 17:14:34;;;;;;;1.65;0.90;;;18.40;67.40;;;;;;10339804;28;20586;-58
2021/11/13 17:19:35;;;;;;;1.00;0.60;;;18.40;67.60;;;;;;10338430;28;20026;-56
2021/11/13 17:24:35;;;;;;;1.50;1.00;;;18.40;67.50;;;;;;10337421;28;20117;-58
2021/11/13 17:29:36;;;;;;;1.33;0.80;;;18.50;67.40;;;;;;10337348;28;20548;-59
2021/11/13 17:34:37;;;;;;;1.45;0.90;;;18.40;67.50;;;;;;10350476;28;20490;-58
2021/11/13 17:39:38;;;;;;;1.23;0.80;;;18.40;67.60;;;;;;10377476;28;20505;-58
2021/11/13 17:44:39;;;;;;;1.40;0.90;;;18.50;67.30;;;;;;10377269;28;20037;-58
2021/11/13 17:49:39;;;;;;;1.00;0.80;;;18.50;67.30;;;;;;10377597;28;20040;-58
2021/11/13 17:54:46;;;;;;;1.60;1.10;;;18.40;67.50;;;;;;10376895;28;20405;-57
2021/11/13 17:59:48;;;;;;;1.85;0.80;;;18.40;67.40;;;;;;10376795;28;20381;-58
2021/11/13 18:04:49;;;;;;;1.25;0.95;;;18.50;67.20;;;;;;10376536;28;20033;-58
2021/11/13 18:09:50;;;;;;;2.05;0.90;;;18.50;67.30;;;;;;10374906;28;20068;-58
2021/11/13 18:14:50;;;;;;;1.50;0.90;;;18.40;67.40;;;;;;10316941;28;20077;-57
2021/11/13 18:19:51;;;;;;;1.65;1.52;;;18.50;67.20;;;;;;10334225;28;20106;-58
2021/11/13 18:24:52;;;;;;;1.33;1.00;;;18.50;67.10;;;;;;10335106;28;20042;-57
2021/11/13 18:29:53;;;;;;;1.55;1.00;;;18.40;67.30;;;;;;10334985;28;20026;-58
2021/11/13 18:34:54;;;;;;;1.27;1.00;;;18.40;67.30;;;;;;10349462;28;20053;-59
2021/11/13 18:39:55;;;;;;;2.00;1.27;;;18.50;67.10;;;;;;10375221;28;20045;-59
2021/11/13 18:44:55;;;;;;;1.38;0.95;;;18.50;67.20;;;;;;10374836;28;20038;-59
2021/11/13 18:49:56;;;;;;;1.70;1.20;;;18.40;67.40;;;;;;10374825;28;20025;-57
2021/11/13 18:54:57;;;;;;;1.85;0.95;;;18.40;67.20;;;;;;10374470;28;20034;-59
2021/11/13 18:59:58;;;;;;;2.28;1.30;;;18.50;67.10;;;;;;10374316;28;20100;-58
2021/11/13 19:04:59;;;;;;;1.40;0.95;;;18.40;67.20;;;;;;10372884;28;20493;-58
2021/11/13 19:09:59;;;;;;;1.50;1.00;;;18.40;67.30;;;;;;10371361;28;20556;-58
2021/11/13 19:15:00;;;;;;;1.30;0.90;;;18.50;67.10;;;;;;10333266;28;20514;-58
2021/11/13 19:20:03;;;;;;;1.58;1.02;;;18.50;67.10;;;;;;10333059;28;20026;-58
2021/11/13 19:25:07;;;;;;;1.60;1.30;;;18.40;67.20;;;;;;10332755;28;20482;-57
2021/11/13 19:30:13;;;;;;;1.40;0.88;;;18.40;67.20;;;;;;10315148;28;20483;-58
2021/11/13 19:35:18;;;;;;;2.15;1.33;;;18.50;67.00;;;;;;10345578;28;20026;-58
2021/11/13 19:40:19;;;;;;;2.28;0.88;;;18.40;67.10;;;;;;10332291;28;20022;-57
2021/11/13 19:45:24;;;;;;;1.08;0.90;;;18.40;67.20;;;;;;10359383;28;20046;-58
2021/11/13 19:50:26;;;;;;;1.83;1.17;;;18.40;67.00;;;;;;10369915;28;20045;-61
2021/11/13 19:55:27;;;;;;;2.15;1.35;;;18.50;67.10;;;;;;10371176;28;20459;-59
2021/11/13 20:00:28;;;;;;;2.45;1.40;;;18.40;67.20;;;;;;10361343;28;20026;-59
2021/11/13 20:05:33;;;;;;;5.57;1.45;;;18.40;67.20;;;;;;10362750;28;20044;-61
2021/11/13 20:10:35;;;;;;;4.10;0.90;;;18.40;67.00;;;;;;10354594;28;20042;-59
2021/11/13 20:15:36;;;;;;;4.75;1.48;;;18.60;67.00;;;;;;10360846;28;20030;-60
2021/11/13 20:20:38;;;;;;;5.20;1.70;;;18.60;67.30;;;;;;10353070;28;20363;-60
2021/11/13 20:25:41;;;;;;;4.88;1.27;;;18.50;67.40;;;;;;10351804;28;20072;-59
2021/11/13 20:30:42;;;;;;;4.38;1.60;;;18.40;67.70;;;;;;10361682;28;20076;-60
2021/11/13 20:35:46;;;;;;;4.10;1.17;;;18.30;68.00;;;;;;10362787;28;20379;-59
2021/11/13 20:40:48;;;;;;;3.08;1.50;;;18.20;68.30;;;;;;10357936;28;20025;-60
2021/11/13 20:45:49;;;;;;;4.07;1.30;;;18.10;68.50;;;;;;10358285;28;20550;-59
2021/11/13 20:50:50;;;;;;;3.10;1.48;;;18.00;68.60;;;;;;10343654;28;20030;-59
2021/11/13 20:55:51;;;;;;;2.10;1.15;;;18.00;68.80;;;;;;10327810;28;20113;-59
2021/11/13 21:00:55;;;;;;;2.95;1.52;;;18.00;68.90;;;;;;10337045;28;20030;-59
2021/11/13 21:05:56;;;;;;;2.35;1.30;;;17.90;69.00;;;;;;10329703;28;20038;-59
2021/11/13 21:10:57;;;;;;;2.03;1.42;;;17.80;69.10;;;;;;10343665;28;20050;-60
2021/11/13 21:15:58;;;;;;;1.63;1.20;;;17.80;69.20;;;;;;10328499;28;20478;-59
2021/11/13 21:21:00;;;;;;;3.15;1.50;;;17.80;69.20;;;;;;10333590;28;20054;-60
2021/11/13 21:26:01;;;;;;;2.30;1.13;;;17.70;69.20;;;;;;10331145;28;20034;-59
2021/11/13 21:31:03;;;;;;;3.28;1.30;;;17.80;69.40;;;;;;10331156;28;20026;-58
2021/11/13 21:36:03;;;;;;;2.95;1.48;;;17.70;69.50;;;;;;10354703;28;20062;-59
2021/11/13 21:41:05;;;;;;;2.00;1.02;;;17.60;69.50;;;;;;10353408;28;20049;-59
2021/11/13 21:46:06;;;;;;;3.50;1.45;;;17.60;69.60;;;;;;10369869;28;20525;-59
2021/11/13 21:51:07;;;;;;;2.35;1.40;;;17.60;69.70;;;;;;10375839;28;20065;-59
2021/11/13 21:56:07;;;;;;;1.92;1.55;;;17.60;69.80;;;;;;10377579;28;20026;-59
2021/11/13 22:01:08;;;;;;;2.10;1.42;;;17.50;69.70;;;;;;10377165;28;20034;-59
2021/11/13 22:06:09;;;;;;;2.25;1.02;;;17.50;69.70;;;;;;10376837;28;20079;-59
2021/11/13 22:11:09;;;;;;;1.85;1.35;;;17.50;69.80;;;;;;10367274;28;20124;-59
2021/11/13 22:16:10;;;;;;;2.47;1.48;;;17.50;69.90;;;;;;10341345;28;20033;-58
2021/11/13 22:21:12;;;;;;;2.03;1.33;;;17.40;69.80;;;;;;10344919;28;20029;-59
2021/11/13 22:26:13;;;;;;;3.15;1.52;;;17.40;69.90;;;;;;10371350;28;20033;-59
2021/11/13 22:31:14;;;;;;;2.53;1.75;;;17.40;69.90;;;;;;10377360;28;20075;-59
2021/11/13 22:36:14;;;;;;;2.03;1.33;;;17.50;69.70;;;;;;10348401;28;20378;-58
2021/11/13 22:41:15;;;;;;;1.67;1.33;;;17.50;69.70;;;;;;10347722;28;20042;-59
2021/11/13 22:46:16;;;;;;;2.13;1.48;;;17.50;69.70;;;;;;10319076;28;20080;-59
2021/11/13 22:51:17;;;;;;;2.42;1.35;;;17.40;69.70;;;;;;10335034;28;20042;-59
2021/11/13 22:56:18;;;;;;;2.00;1.42;;;17.40;69.80;;;;;;10335735;28;20042;-59
2021/11/13 23:01:57;;;;;;;2.15;1.40;;;17.50;69.70;;;;;;10339824;28;20426;-58
2021/11/13 23:07:02;;;;;;;1.77;1.45;;;17.60;69.10;;;;;;10292123;28;20046;-59
2021/11/13 23:12:04;;;;;;;2.58;1.85;;;17.60;69.00;;;;;;10348154;28;20057;-59
2021/11/13 23:17:07;;;;;;;3.35;1.35;;;17.70;69.00;;;;;;10338637;28;20030;-58
2021/11/13 23:22:15;;;;;;;2.60;1.60;;;17.60;69.00;;;;;;10333714;28;20030;-59
2021/11/13 23:27:18;;;;;;;1.95;1.25;;;17.70;68.70;;;;;;10333484;28;20165;-59
2021/11/13 23:32:19;;;;;;;2.20;1.30;;;17.70;68.50;;;;;;10363462;28;20463;-59
2021/11/13 23:37:20;;;;;;;2.00;1.40;;;17.70;68.60;;;;;;10362397;28;20030;-59
2021/11/13 23:42:21;;;;;;;2.25;1.20;;;17.70;68.70;;;;;;10345034;28;20490;-58
2021/11/13 23:47:22;;;;;;;2.38;1.60;;;17.60;68.80;;;;;;10333753;28;20416;-58
2021/11/13 23:52:23;;;;;;;2.50;1.67;;;17.60;69.00;;;;;;10339061;28;20041;-59
2021/11/13 23:57:24;;;;;;;2.10;1.67;;;17.50;69.00;;;;;;10359447;28;20557;-59
